Cudworth, Canada
Current Conditions -  °F | °C
As of 3:00 PM on Thursday 27 Nov 2014 (Local Time) from CYXE Reporting Station
Light Snow Light Snow  
Wind Chill: -20°   Ceiling: 500
Heat Index: -11°   Visibility: 1mi
Dew Point: -12°   Wind: 16mph
Humidity: 92%   Direction: 60°ENE
Pressure: 30.01"   Gusts: 22mph
Location:  52.48°N, 105.72°W
Report Text: CYXE 272100Z 06014G19KT 1SM R09/P6000FT/N -SN DRSN OVC005 M11/M12 A3001 RMK SN4SC4 SLP206
Loading
Personal Weather Stations






























Interactive Weather Map New forecast layout! Learn more

10-Day Weather Forecast

Advertisements
Track Severe Weather on mobile